Yosemite National Park, CA

5:25 PM PDT on April 24, 2015 (GMT -0700)
RAWS | | Change Station
CLOSE
Current Station
Personal Weather Station
Location: Tuolumne Meadows, CA
Elevation: 4309 ft
Nearby Weather Stations
Active Advisory: Winter Weather Advisory

Elev 4309 ft 37.53 °N, 119.64 °W | Updated 34 minutes ago

Mostly Cloudy
Mostly Cloudy
55 °F
Feels Like 55 °F
N
2
Wind Variable Wind from South
Gusts 9.0 mph

Today
High -- | Low -- °F
--% Chance of Precip.
Yesterday
High -- | Low -- °F
Precip. -- in
6:11 AM 7:42 PM
Waxing Crescent, 40% visible
Pressure 29.94 in
Visibility 10.0 miles
Clouds Clear
Dew Point 33 °F
Humidity 44%
Rainfall in
Snow Depth Not available.
UV 4 out of 12
Pollen 8.60 out of 12
Air Quality Not available.
Flu Activity Sporadic
METAR KO22 242355Z AUTO 23006KT 10SM CLR 18/03 A2994 RMK AO1

More Conditions Fewer Conditions

Pressure 29.94 in
Visibility 10.0 miles
Clouds Clear
Dew Point 33 °F
Humidity 44%
Rainfall in
Snow Depth Not available.
UV 4 out of 12
Pollen 8.60 out of 12
Air Quality Not available.
Flu Activity Sporadic
METAR KO22 242355Z AUTO 23006KT 10SM CLR 18/03 A2994 RMK AO1

More Conditions Fewer Conditions

10-Day Weather Forecast

Almanac

Astronomy

Apr. 24, 2015 Rise Set
Actual Time
Civil Twilight
Nautical Twilight
Astronomical Twilight
Moon
Length of Visible Light
Length of Day
Tomorrow will be .
, % of the Moon is Illuminated

Today's Extremes

State Highs State Lows

Community

WunderPhotos

Upload Photos

1,816,515 photos uploaded!

WunderBlogs® & News

Nearby

Air Quality

  Air Quality AQ Index Pollutant
Not available.

Snow Depth

Station Depth Elevation

Earthquake Activity

City Distance Mag. Time & Date
Minimum magnitude displayed is 2.5.

Coastal Water Temperatures

Place Temperature

Stations

Nearby Weather Stations

Station Location Temp. Windchill Dew Point Humidity Wind Precip. Elev Updated Type
                   
Winter Weather Advisory
Statement as of 12:28 PM PDT on April 24, 2015

... Winter Weather Advisory in effect from 2 am to 5 PM PDT
Saturday...

The National Weather Service in Hanford has issued a Winter
Weather Advisory for snow... which is in effect from 2 am to 5 PM
PDT Saturday.

* Accumulations... snow accumulation of 2 to 4 inches. And up to 8
inches of snow over the high country.

* Elevation: above 6500 feet.

* Timing... precipitation starting late tonight. Heavy snow
developing during the predawn hours. Snow diminishing and
turning to snow showers during the early afternoon Saturday.

* Impacts... travel delays across the Sierra with possible chain
restrictions.

* Winds... southwest 10 to 20 mph with gusts up to 40 mph.

Precautionary/preparedness actions...

A Winter Weather Advisory for snow means that periods of snow
will cause primarily travel difficulties. Be prepared for snow
covered roads and limited visibilities... and use caution while
driving.



Mv